Time,TemperatureF,DewpointF,PressureIn,WindDirection,WindDirectionDegrees,WindSpeedMPH,WindSpeedGustMPH,Humidity,HourlyPrecipIn,Conditions,Clouds,dailyrainin,SoftwareType,DateUTC
2013-03-15 06:03:00,41.0,37.0,30.24,SSW,196,0.0,0.0,87,0.00,,,0.00,,2013-03-15 11:03:00,
2013-03-15 06:12:00,41.0,37.0,30.24,SSW,196,0.0,0.0,87,0.00,,,0.00,,2013-03-15 11:12:00,
2013-03-15 06:22:00,41.0,37.0,30.24,SSW,196,0.0,0.0,87,0.00,,,0.00,,2013-03-15 11:22:00,
2013-03-15 06:32:00,41.0,37.0,30.24,SSW,196,0.0,0.0,87,0.00,,,0.00,,2013-03-15 11:32:00,
2013-03-15 06:42:00,41.0,37.0,30.24,SSW,196,0.0,0.0,87,0.00,,,0.00,,2013-03-15 11:42:00,
2013-03-15 06:52:00,41.0,37.0,30.24,SSW,196,0.0,0.0,87,0.00,,,0.00,,2013-03-15 11:52:00,
2013-03-15 07:02:00,40.0,36.0,30.25,SSW,196,0.0,0.0,87,0.00,,,0.00,,2013-03-15 12:02:00,
2013-03-15 07:12:00,40.0,36.0,30.25,SSW,196,0.0,0.0,87,0.00,,,0.00,,2013-03-15 12:12:00,
2013-03-15 07:23:00,40.0,36.0,30.24,SSW,196,0.0,0.0,87,0.00,,,0.00,,2013-03-15 12:23:00,
2013-03-15 07:32:00,40.0,36.0,30.24,SSW,196,0.0,0.0,87,0.00,,,0.00,,2013-03-15 12:32:00,
2013-03-15 07:42:00,40.0,36.0,30.24,SSW,196,0.0,0.0,87,0.00,,,0.00,,2013-03-15 12:42:00,
2013-03-15 07:52:00,40.0,36.0,30.24,SSW,196,0.0,0.0,87,0.00,,,0.00,,2013-03-15 12:52:00,
2013-03-15 08:02:00,41.0,37.0,30.24,SSW,196,0.0,0.0,86,0.00,,,0.00,,2013-03-15 13:02:00,
2013-03-15 08:12:00,41.0,37.0,30.24,SSW,196,0.0,0.0,86,0.00,,,0.00,,2013-03-15 13:12:00,
2013-03-15 08:22:00,43.0,39.0,30.25,SSW,196,0.0,0.0,87,0.00,,,0.00,,2013-03-15 13:22:00,
2013-03-15 08:32:00,47.0,44.0,30.25,SSW,196,0.0,0.0,88,0.00,,,0.00,,2013-03-15 13:32:00,
2013-03-15 08:42:00,47.0,44.0,30.25,SSW,196,0.0,0.0,88,0.00,,,0.00,,2013-03-15 13:42:00,
2013-03-15 08:52:00,50.0,47.0,30.26,SSW,196,0.0,0.0,88,0.00,,,0.00,,2013-03-15 13:52:00,
2013-03-15 09:02:00,53.0,49.0,30.26,SSW,196,0.0,0.0,87,0.00,,,0.00,,2013-03-15 14:02:00,
2013-03-15 09:12:00,53.0,49.0,30.26,SSW,196,0.0,0.0,87,0.00,,,0.00,,2013-03-15 14:12:00,
2013-03-15 09:22:00,57.0,53.0,30.26,SSW,196,0.0,0.0,86,0.00,,,0.00,,2013-03-15 14:22:00,
2013-03-15 09:32:00,60.0,56.0,30.26,ESE,119,0.0,2.0,87,0.00,,,0.00,,2013-03-15 14:32:00,
2013-03-15 09:42:00,60.0,56.0,30.26,ESE,119,0.0,2.0,87,0.00,,,0.00,,2013-03-15 14:42:00,
2013-03-15 09:53:00,61.0,57.0,30.26,ESE,123,0.0,3.0,87,0.00,,,0.00,,2013-03-15 14:53:00,
2013-03-15 10:02:00,64.0,59.0,30.25,SSE,160,2.0,5.0,83,0.00,,,0.00,,2013-03-15 15:02:00,
2013-03-15 10:13:00,64.0,59.0,30.25,SSE,160,2.0,5.0,83,0.00,,,0.00,,2013-03-15 15:13:00,
2013-03-15 10:22:00,66.0,59.0,30.26,South,186,6.0,10.0,78,0.00,,,0.00,,2013-03-15 15:22:00,
2013-03-15 10:33:00,68.0,59.0,30.26,SSW,194,2.0,9.0,74,0.00,,,0.00,,2013-03-15 15:33:00,
2013-03-15 10:42:00,69.0,58.0,30.25,SSW,204,6.0,10.0,69,0.00,,,0.00,,2013-03-15 15:42:00,
2013-03-15 10:53:00,69.0,58.0,30.25,SSW,204,6.0,10.0,69,0.00,,,0.00,,2013-03-15 15:53:00,
2013-03-15 11:02:00,70.0,59.0,30.25,WSW,250,5.0,10.0,69,0.00,,,0.00,,2013-03-15 16:02:00,
2013-03-15 11:12:00,70.0,59.0,30.25,South,190,3.0,12.0,67,0.00,,,0.00,,2013-03-15 16:12:00,
2013-03-15 11:22:00,70.0,59.0,30.25,South,190,3.0,12.0,67,0.00,,,0.00,,2013-03-15 16:22:00,
2013-03-15 11:32:00,72.0,59.0,30.25,SSW,209,6.0,10.0,64,0.00,,,0.00,,2013-03-15 16:32:00,
2013-03-15 11:42:00,72.0,59.0,30.25,SSW,209,6.0,10.0,64,0.00,,,0.00,,2013-03-15 16:42:00,
2013-03-15 11:52:00,72.0,58.0,30.24,SSW,194,6.0,10.0,62,0.00,,,0.00,,2013-03-15 16:52:00,
2013-03-15 12:02:00,72.0,58.0,30.24,South,183,6.0,12.0,61,0.00,,,0.00,,2013-03-15 17:02:00,
2013-03-15 12:12:00,72.0,58.0,30.24,South,183,6.0,12.0,61,0.00,,,0.00,,2013-03-15 17:12:00,
2013-03-15 12:22:00,73.0,57.0,30.24,South,188,7.0,13.0,57,0.00,,,0.00,,2013-03-15 17:22:00,
2013-03-15 12:32:00,73.0,58.0,30.24,SSE,165,5.0,14.0,59,0.00,,,0.00,,2013-03-15 17:32:00,
2013-03-15 12:42:00,73.0,58.0,30.24,SSE,165,5.0,14.0,59,0.00,,,0.00,,2013-03-15 17:42:00,
2013-03-15 12:53:00,74.0,58.0,30.22,South,169,8.0,13.0,57,0.00,,,0.00,,2013-03-15 17:53:00,
2013-03-15 13:02:00,75.0,60.0,30.22,SSW,213,5.0,13.0,59,0.00,,,0.00,,2013-03-15 18:02:00,
2013-03-15 13:12:00,75.0,60.0,30.22,SSW,213,5.0,13.0,59,0.00,,,0.00,,2013-03-15 18:12:00,
2013-03-15 13:22:00,75.0,58.0,30.22,SSW,211,8.0,14.0,56,0.00,,,0.00,,2013-03-15 18:22:00,
2013-03-15 13:32:00,75.0,59.0,30.20,WSW,244,7.0,16.0,57,0.00,,,0.00,,2013-03-15 18:32:00,
2013-03-15 13:42:00,75.0,59.0,30.20,WSW,244,7.0,16.0,57,0.00,,,0.00,,2013-03-15 18:42:00,
2013-03-15 13:52:00,76.0,58.0,30.19,SSW,202,5.0,11.0,54,0.00,,,0.00,,2013-03-15 18:52:00,
2013-03-15 14:02:00,76.0,59.0,30.18,South,187,6.0,13.0,55,0.00,,,0.00,,2013-03-15 19:02:00,
2013-03-15 14:12:00,76.0,59.0,30.18,South,187,6.0,13.0,55,0.00,,,0.00,,2013-03-15 19:12:00,
2013-03-15 14:22:00,76.0,58.0,30.17,SSW,206,6.0,15.0,53,0.00,,,0.00,,2013-03-15 19:22:00,
2013-03-15 14:32:00,77.0,58.0,30.16,SSW,196,8.0,14.0,52,0.00,,,0.00,,2013-03-15 19:32:00,
2013-03-15 14:42:00,77.0,58.0,30.16,SSW,196,8.0,14.0,52,0.00,,,0.00,,2013-03-15 19:42:00,
2013-03-15 14:52:00,76.0,58.0,30.16,South,190,9.0,16.0,53,0.00,,,0.00,,2013-03-15 19:52:00,
2013-03-15 15:02:00,76.0,59.0,30.15,South,182,8.0,16.0,55,0.00,,,0.00,,2013-03-15 20:02:00,
2013-03-15 15:12:00,76.0,59.0,30.15,South,182,8.0,16.0,55,0.00,,,0.00,,2013-03-15 20:12:00,
2013-03-15 15:22:00,76.0,59.0,30.14,WSW,240,8.0,15.0,55,0.00,,,0.00,,2013-03-15 20:22:00,
2013-03-15 15:32:00,76.0,59.0,30.14,SSE,167,9.0,19.0,56,0.00,,,0.00,,2013-03-15 20:32:00,
2013-03-15 15:42:00,76.0,59.0,30.14,SSE,167,9.0,19.0,56,0.00,,,0.00,,2013-03-15 20:42:00,
2013-03-15 15:52:00,76.0,60.0,30.13,SSW,209,8.0,17.0,57,0.00,,,0.00,,2013-03-15 20:52:00,
2013-03-15 16:02:00,76.0,61.0,30.13,WSW,242,9.0,18.0,59,0.00,,,0.00,,2013-03-15 21:02:00,
2013-03-15 16:12:00,76.0,61.0,30.13,WSW,242,9.0,18.0,59,0.00,,,0.00,,2013-03-15 21:12:00,
2013-03-15 16:22:00,75.0,59.0,30.12,SW,217,10.0,16.0,58,0.00,,,0.00,,2013-03-15 21:22:00,
2013-03-15 16:32:00,75.0,59.0,30.11,South,187,10.0,18.0,58,0.00,,,0.00,,2013-03-15 21:32:00,
2013-03-15 16:43:00,75.0,59.0,30.11,South,187,10.0,18.0,58,0.00,,,0.00,,2013-03-15 21:43:00,
2013-03-15 16:53:00,75.0,60.0,30.11,South,185,7.0,15.0,59,0.00,,,0.00,,2013-03-15 21:53:00,
2013-03-15 17:13:00,75.0,60.0,30.11,SSW,204,10.0,17.0,60,0.00,,,0.00,,2013-03-15 22:13:00,
2013-03-15 17:22:00,74.0,60.0,30.11,SSW,193,11.0,18.0,61,0.00,,,0.00,,2013-03-15 22:22:00,
2013-03-15 17:32:00,73.0,60.0,30.11,SSW,202,10.0,16.0,63,0.00,,,0.00,,2013-03-15 22:32:00,
2013-03-15 17:42:00,73.0,60.0,30.11,SSW,202,10.0,16.0,63,0.00,,,0.00,,2013-03-15 22:42:00,
2013-03-15 17:52:00,73.0,60.0,30.10,South,178,8.0,17.0,64,0.00,,,0.00,,2013-03-15 22:52:00,
2013-03-15 18:02:00,73.0,61.0,30.10,SSW,196,7.0,16.0,65,0.00,,,0.00,,2013-03-15 23:02:00,
2013-03-15 18:12:00,73.0,61.0,30.10,SSW,196,7.0,16.0,65,0.00,,,0.00,,2013-03-15 23:12:00,
2013-03-15 18:22:00,73.0,61.0,30.10,SSW,202,7.0,15.0,65,0.00,,,0.00,,2013-03-15 23:22:00,
2013-03-15 18:32:00,72.0,60.0,30.10,SSW,198,7.0,14.0,67,0.00,,,0.00,,2013-03-15 23:32:00,
2013-03-15 18:42:00,72.0,60.0,30.10,SSW,198,7.0,14.0,67,0.00,,,0.00,,2013-03-15 23:42:00,
2013-03-15 18:53:00,71.0,59.0,30.10,SSW,211,7.0,13.0,67,0.00,,,0.00,,2013-03-15 23:53:00,
2013-03-15 19:02:00,71.0,60.0,30.10,SSW,194,8.0,13.0,68,0.00,,,0.00,,2013-03-16 00:02:00,
2013-03-15 19:12:00,71.0,60.0,30.10,SSW,194,8.0,13.0,68,0.00,,,0.00,,2013-03-16 00:12:00,
2013-03-15 19:22:00,70.0,61.0,30.10,South,187,7.0,14.0,72,0.00,,,0.00,,2013-03-16 00:22:00,
2013-03-15 19:32:00,69.0,60.0,30.10,South,180,7.0,10.0,74,0.00,,,0.00,,2013-03-16 00:32:00,
2013-03-15 19:42:00,69.0,60.0,30.10,South,180,7.0,10.0,74,0.00,,,0.00,,2013-03-16 00:42:00,
2013-03-15 19:52:00,68.0,61.0,30.10,SSW,195,5.0,10.0,78,0.00,,,0.00,,2013-03-16 00:52:00,
2013-03-15 20:02:00,68.0,62.0,30.10,SSW,197,3.0,7.0,80,0.00,,,0.00,,2013-03-16 01:02:00,
2013-03-15 20:12:00,68.0,62.0,30.10,SSW,197,3.0,7.0,80,0.00,,,0.00,,2013-03-16 01:12:00,
2013-03-15 20:21:00,67.0,61.0,30.11,SSW,198,2.0,7.0,82,0.00,,,0.00,,2013-03-16 01:21:00,
2013-03-15 20:32:00,67.0,61.0,30.11,SSW,198,1.0,4.0,82,0.00,,,0.00,,2013-03-16 01:32:00,
2013-03-15 20:42:00,67.0,61.0,30.11,SSW,198,1.0,4.0,82,0.00,,,0.00,,2013-03-16 01:42:00,
2013-03-15 20:52:00,67.0,62.0,30.11,SSW,197,3.0,7.0,83,0.00,,,0.00,,2013-03-16 01:52:00,
2013-03-15 21:02:00,66.0,61.0,30.11,SSW,198,1.0,5.0,84,0.00,,,0.00,,2013-03-16 02:02:00,
2013-03-15 21:12:00,66.0,61.0,30.11,SSW,198,1.0,5.0,84,0.00,,,0.00,,2013-03-16 02:12:00,
2013-03-15 21:23:00,66.0,61.0,30.11,SSW,198,1.0,4.0,85,0.00,,,0.00,,2013-03-16 02:23:00,
2013-03-15 21:32:00,65.0,61.0,30.11,SSW,198,1.0,3.0,86,0.00,,,0.00,,2013-03-16 02:32:00,
2013-03-15 21:42:00,65.0,61.0,30.11,SSW,198,1.0,3.0,86,0.00,,,0.00,,2013-03-16 02:42:00,
2013-03-15 21:52:00,65.0,61.0,30.12,SSW,198,2.0,4.0,86,0.00,,,0.00,,2013-03-16 02:52:00,
2013-03-15 22:02:00,65.0,61.0,30.12,SSW,197,2.0,5.0,86,0.00,,,0.00,,2013-03-16 03:02:00,
2013-03-15 22:12:00,65.0,61.0,30.12,SSW,197,2.0,5.0,86,0.00,,,0.00,,2013-03-16 03:12:00,
2013-03-15 22:22:00,65.0,61.0,30.12,SSW,197,1.0,5.0,86,0.00,,,0.00,,2013-03-16 03:22:00,
2013-03-15 22:32:00,65.0,61.0,30.11,SSW,192,3.0,7.0,87,0.00,,,0.00,,2013-03-16 03:32:00,
2013-03-15 22:43:00,65.0,61.0,30.11,SSW,192,3.0,7.0,87,0.00,,,0.00,,2013-03-16 03:43:00,
2013-03-15 22:53:00,65.0,61.0,30.11,South,188,5.0,9.0,87,0.00,,,0.00,,2013-03-16 03:53:00,
2013-03-15 23:02:00,65.0,61.0,30.10,South,186,3.0,12.0,87,0.00,,,0.00,,2013-03-16 04:02:00,
2013-03-15 23:12:00,65.0,61.0,30.10,South,186,3.0,12.0,87,0.00,,,0.00,,2013-03-16 04:12:00,
2013-03-15 23:23:00,65.0,61.0,30.10,South,182,3.0,7.0,87,0.00,,,0.00,,2013-03-16 04:23:00,
2013-03-15 23:32:00,65.0,61.0,30.10,South,184,3.0,7.0,87,0.00,,,0.00,,2013-03-16 04:32:00,
2013-03-15 23:42:00,65.0,61.0,30.10,South,184,3.0,7.0,87,0.00,,,0.00,,2013-03-16 04:42:00,
2013-03-15 23:53:00,65.0,61.0,30.09,South,183,5.0,9.0,87,0.00,,,0.00,,2013-03-16 04:53:00,